sensor_id;sensor_type;location;lat;lon;timestamp;P1;durP1;ratioP1;P2;durP2;ratioP2
15883;SDS011;8040;50.254;10.960;2023-04-06T00:00:33;372.67;;;75.70;;
15883;SDS011;8040;50.254;10.960;2023-04-06T00:02:59;374.90;;;77.50;;
15883;SDS011;8040;50.254;10.960;2023-04-06T00:05:24;372.20;;;74.30;;
15883;SDS011;8040;50.254;10.960;2023-04-06T00:07:50;373.90;;;77.65;;
15883;SDS011;8040;50.254;10.960;2023-04-06T00:10:16;377.40;;;80.68;;
15883;SDS011;8040;50.254;10.960;2023-04-06T00:12:42;381.35;;;79.25;;
15883;SDS011;8040;50.254;10.960;2023-04-06T00:15:07;374.23;;;75.57;;
15883;SDS011;8040;50.254;10.960;2023-04-06T00:17:33;377.40;;;78.03;;
15883;SDS011;8040;50.254;10.960;2023-04-06T00:19:59;374.30;;;76.80;;
15883;SDS011;8040;50.254;10.960;2023-04-06T00:22:25;378.15;;;79.55;;
15883;SDS011;8040;50.254;10.960;2023-04-06T00:24:50;381.50;;;80.40;;
15883;SDS011;8040;50.254;10.960;2023-04-06T00:27:16;374.13;;;78.07;;
15883;SDS011;8040;50.254;10.960;2023-04-06T00:29:41;372.90;;;74.90;;
15883;SDS011;8040;50.254;10.960;2023-04-06T00:32:07;374.60;;;77.47;;
15883;SDS011;8040;50.254;10.960;2023-04-06T00:34:32;375.33;;;76.88;;
15883;SDS011;8040;50.254;10.960;2023-04-06T00:36:58;379.93;;;78.57;;
15883;SDS011;8040;50.254;10.960;2023-04-06T00:39:23;377.77;;;78.93;;
15883;SDS011;8040;50.254;10.960;2023-04-06T00:41:50;378.75;;;81.65;;
15883;SDS011;8040;50.254;10.960;2023-04-06T00:44:16;376.25;;;76.78;;
15883;SDS011;8040;50.254;10.960;2023-04-06T00:46:42;373.87;;;74.43;;
15883;SDS011;8040;50.254;10.960;2023-04-06T00:49:07;379.40;;;78.43;;
15883;SDS011;8040;50.254;10.960;2023-04-06T00:51:33;373.97;;;75.43;;
15883;SDS011;8040;50.254;10.960;2023-04-06T00:53:58;374.10;;;75.67;;
15883;SDS011;8040;50.254;10.960;2023-04-06T00:56:24;379.47;;;81.93;;
15883;SDS011;8040;50.254;10.960;2023-04-06T00:58:51;374.35;;;75.97;;
15883;SDS011;8040;50.254;10.960;2023-04-06T01:01:17;380.77;;;79.20;;
15883;SDS011;8040;50.254;10.960;2023-04-06T01:03:43;373.13;;;74.93;;
15883;SDS011;8040;50.254;10.960;2023-04-06T01:06:14;371.58;;;72.97;;
15883;SDS011;8040;50.254;10.960;2023-04-06T01:08:39;378.10;;;79.07;;
15883;SDS011;8040;50.254;10.960;2023-04-06T01:11:05;376.70;;;78.17;;
15883;SDS011;8040;50.254;10.960;2023-04-06T01:13:30;381.03;;;77.87;;
15883;SDS011;8040;50.254;10.960;2023-04-06T01:15:56;378.33;;;79.10;;
15883;SDS011;8040;50.254;10.960;2023-04-06T01:18:28;378.67;;;79.45;;
15883;SDS011;8040;50.254;10.960;2023-04-06T01:20:54;370.90;;;72.43;;
15883;SDS011;8040;50.254;10.960;2023-04-06T01:23:20;373.10;;;71.72;;
15883;SDS011;8040;50.254;10.960;2023-04-06T01:25:46;375.23;;;75.30;;
15883;SDS011;8040;50.254;10.960;2023-04-06T01:28:11;372.38;;;74.90;;
15883;SDS011;8040;50.254;10.960;2023-04-06T01:30:37;373.80;;;75.30;;
15883;SDS011;8040;50.254;10.960;2023-04-06T01:33:02;373.70;;;74.27;;
15883;SDS011;8040;50.254;10.960;2023-04-06T01:35:27;374.93;;;74.27;;
15883;SDS011;8040;50.254;10.960;2023-04-06T01:37:53;377.17;;;76.68;;
15883;SDS011;8040;50.254;10.960;2023-04-06T01:40:19;371.60;;;71.73;;
15883;SDS011;8040;50.254;10.960;2023-04-06T01:42:45;375.27;;;75.87;;
15883;SDS011;8040;50.254;10.960;2023-04-06T01:45:11;371.52;;;71.70;;
15883;SDS011;8040;50.254;10.960;2023-04-06T01:47:36;373.43;;;75.47;;
15883;SDS011;8040;50.254;10.960;2023-04-06T01:50:02;380.43;;;78.43;;
15883;SDS011;8040;50.254;10.960;2023-04-06T01:52:31;371.60;;;72.28;;
15883;SDS011;8040;50.254;10.960;2023-04-06T01:54:58;374.23;;;74.80;;
15883;SDS011;8040;50.254;10.960;2023-04-06T01:57:23;367.07;;;73.30;;
15883;SDS011;8040;50.254;10.960;2023-04-06T01:59:50;371.80;;;74.65;;
15883;SDS011;8040;50.254;10.960;2023-04-06T02:02:16;375.52;;;75.68;;
15883;SDS011;8040;50.254;10.960;2023-04-06T02:04:42;371.13;;;71.63;;
15883;SDS011;8040;50.254;10.960;2023-04-06T02:07:07;372.33;;;73.40;;
15883;SDS011;8040;50.254;10.960;2023-04-06T02:09:33;373.30;;;75.10;;
15883;SDS011;8040;50.254;10.960;2023-04-06T02:11:58;371.00;;;72.33;;
15883;SDS011;8040;50.254;10.960;2023-04-06T02:14:25;382.67;;;81.23;;
15883;SDS011;8040;50.254;10.960;2023-04-06T02:16:51;372.80;;;73.45;;
15883;SDS011;8040;50.254;10.960;2023-04-06T02:19:16;371.27;;;71.32;;
15883;SDS011;8040;50.254;10.960;2023-04-06T02:21:42;376.17;;;77.00;;
15883;SDS011;8040;50.254;10.960;2023-04-06T02:24:07;369.33;;;70.07;;
15883;SDS011;8040;50.254;10.960;2023-04-06T02:26:33;397.47;;;94.87;;
15883;SDS011;8040;50.254;10.960;2023-04-06T02:28:58;370.50;;;70.88;;
15883;SDS011;8040;50.254;10.960;2023-04-06T02:31:23;370.13;;;69.65;;
15883;SDS011;8040;50.254;10.960;2023-04-06T02:33:49;375.60;;;75.23;;
15883;SDS011;8040;50.254;10.960;2023-04-06T02:36:14;377.33;;;76.43;;
15883;SDS011;8040;50.254;10.960;2023-04-06T02:38:40;383.43;;;81.57;;
15883;SDS011;8040;50.254;10.960;2023-04-06T02:41:05;372.58;;;72.35;;
15883;SDS011;8040;50.254;10.960;2023-04-06T02:43:32;372.10;;;70.87;;
15883;SDS011;8040;50.254;10.960;2023-04-06T02:45:58;372.43;;;71.17;;
15883;SDS011;8040;50.254;10.960;2023-04-06T02:48:23;373.17;;;74.20;;
15883;SDS011;8040;50.254;10.960;2023-04-06T02:50:50;377.38;;;77.25;;
15883;SDS011;8040;50.254;10.960;2023-04-06T02:53:15;377.40;;;77.40;;
15883;SDS011;8040;50.254;10.960;2023-04-06T02:55:41;372.92;;;72.55;;
15883;SDS011;8040;50.254;10.960;2023-04-06T02:58:06;373.77;;;74.23;;
15883;SDS011;8040;50.254;10.960;2023-04-06T03:00:32;373.17;;;73.33;;
15883;SDS011;8040;50.254;10.960;2023-04-06T03:02:57;386.83;;;84.10;;
15883;SDS011;8040;50.254;10.960;2023-04-06T03:05:23;372.55;;;72.45;;
15883;SDS011;8040;50.254;10.960;2023-04-06T03:07:48;379.87;;;80.00;;
15883;SDS011;8040;50.254;10.960;2023-04-06T03:10:14;376.13;;;75.17;;
15883;SDS011;8040;50.254;10.960;2023-04-06T03:12:39;372.83;;;73.28;;
15883;SDS011;8040;50.254;10.960;2023-04-06T03:15:07;383.17;;;81.35;;
15883;SDS011;8040;50.254;10.960;2023-04-06T03:17:33;373.13;;;72.10;;
15883;SDS011;8040;50.254;10.960;2023-04-06T03:19:58;376.88;;;75.80;;
15883;SDS011;8040;50.254;10.960;2023-04-06T03:22:24;379.27;;;80.00;;
15883;SDS011;8040;50.254;10.960;2023-04-06T03:24:49;378.03;;;78.03;;
15883;SDS011;8040;50.254;10.960;2023-04-06T03:27:15;397.33;;;94.00;;
15883;SDS011;8040;50.254;10.960;2023-04-06T03:29:40;380.50;;;78.57;;
15883;SDS011;8040;50.254;10.960;2023-04-06T03:32:06;372.57;;;73.47;;
15883;SDS011;8040;50.254;10.960;2023-04-06T03:34:31;374.00;;;73.60;;
15883;SDS011;8040;50.254;10.960;2023-04-06T03:36:57;371.95;;;71.65;;
15883;SDS011;8040;50.254;10.960;2023-04-06T03:39:22;374.33;;;73.97;;
15883;SDS011;8040;50.254;10.960;2023-04-06T03:41:48;372.33;;;72.30;;
15883;SDS011;8040;50.254;10.960;2023-04-06T03:44:13;369.87;;;70.23;;
15883;SDS011;8040;50.254;10.960;2023-04-06T03:46:38;375.80;;;75.00;;
15883;SDS011;8040;50.254;10.960;2023-04-06T03:49:04;376.05;;;74.25;;
15883;SDS011;8040;50.254;10.960;2023-04-06T03:51:29;375.47;;;74.40;;
15883;SDS011;8040;50.254;10.960;2023-04-06T03:53:55;375.98;;;73.45;;
15883;SDS011;8040;50.254;10.960;2023-04-06T03:56:21;379.00;;;75.68;;
15883;SDS011;8040;50.254;10.960;2023-04-06T03:58:46;371.60;;;70.93;;
15883;SDS011;8040;50.254;10.960;2023-04-06T04:01:15;373.75;;;71.70;;
15883;SDS011;8040;50.254;10.960;2023-04-06T04:03:42;373.75;;;72.35;;
15883;SDS011;8040;50.254;10.960;2023-04-06T04:06:07;374.07;;;74.50;;
15883;SDS011;8040;50.254;10.960;2023-04-06T04:08:33;370.63;;;69.57;;
15883;SDS011;8040;50.254;10.960;2023-04-06T04:10:58;374.52;;;72.95;;
15883;SDS011;8040;50.254;10.960;2023-04-06T04:13:24;373.30;;;71.97;;
15883;SDS011;8040;50.254;10.960;2023-04-06T04:15:50;371.30;;;71.30;;
15883;SDS011;8040;50.254;10.960;2023-04-06T04:18:15;371.33;;;70.30;;
15883;SDS011;8040;50.254;10.960;2023-04-06T04:20:41;371.93;;;70.07;;
15883;SDS011;8040;50.254;10.960;2023-04-06T04:23:06;374.35;;;73.22;;
15883;SDS011;8040;50.254;10.960;2023-04-06T04:25:32;373.77;;;73.23;;
15883;SDS011;8040;50.254;10.960;2023-04-06T04:27:57;380.00;;;75.80;;
15883;SDS011;8040;50.254;10.960;2023-04-06T04:30:23;374.27;;;73.67;;
15883;SDS011;8040;50.254;10.960;2023-04-06T04:32:48;379.83;;;75.13;;
15883;SDS011;8040;50.254;10.960;2023-04-06T04:35:14;375.02;;;75.43;;
15883;SDS011;8040;50.254;10.960;2023-04-06T04:37:40;373.67;;;70.93;;
15883;SDS011;8040;50.254;10.960;2023-04-06T04:40:06;372.52;;;70.88;;
15883;SDS011;8040;50.254;10.960;2023-04-06T04:42:32;371.73;;;70.07;;
15883;SDS011;8040;50.254;10.960;2023-04-06T04:44:57;374.13;;;72.70;;
15883;SDS011;8040;50.254;10.960;2023-04-06T04:47:23;376.52;;;76.20;;
15883;SDS011;8040;50.254;10.960;2023-04-06T04:49:48;377.87;;;75.30;;
15883;SDS011;8040;50.254;10.960;2023-04-06T04:52:14;376.93;;;76.10;;
15883;SDS011;8040;50.254;10.960;2023-04-06T04:54:39;383.40;;;78.63;;
15883;SDS011;8040;50.254;10.960;2023-04-06T04:57:06;372.80;;;72.75;;
15883;SDS011;8040;50.254;10.960;2023-04-06T04:59:31;380.57;;;73.53;;
15883;SDS011;8040;50.254;10.960;2023-04-06T05:01:57;374.90;;;74.43;;
15883;SDS011;8040;50.254;10.960;2023-04-06T05:04:22;374.95;;;72.53;;
15883;SDS011;8040;50.254;10.960;2023-04-06T05:06:48;378.73;;;76.40;;
15883;SDS011;8040;50.254;10.960;2023-04-06T05:09:14;384.00;;;78.63;;
15883;SDS011;8040;50.254;10.960;2023-04-06T05:11:40;382.10;;;79.13;;
15883;SDS011;8040;50.254;10.960;2023-04-06T05:14:05;382.17;;;77.55;;
15883;SDS011;8040;50.254;10.960;2023-04-06T05:16:32;378.73;;;76.87;;
15883;SDS011;8040;50.254;10.960;2023-04-06T05:18:58;374.43;;;73.00;;
15883;SDS011;8040;50.254;10.960;2023-04-06T05:21:24;374.15;;;74.55;;
15883;SDS011;8040;50.254;10.960;2023-04-06T05:23:51;375.98;;;72.82;;
15883;SDS011;8040;50.254;10.960;2023-04-06T05:26:16;376.87;;;77.77;;
15883;SDS011;8040;50.254;10.960;2023-04-06T05:28:42;386.45;;;78.47;;
15883;SDS011;8040;50.254;10.960;2023-04-06T05:31:09;375.70;;;74.93;;
15883;SDS011;8040;50.254;10.960;2023-04-06T05:33:34;379.80;;;81.10;;
15883;SDS011;8040;50.254;10.960;2023-04-06T05:36:00;384.23;;;83.80;;
15883;SDS011;8040;50.254;10.960;2023-04-06T05:38:26;377.17;;;81.53;;
15883;SDS011;8040;50.254;10.960;2023-04-06T05:40:51;383.55;;;82.72;;
15883;SDS011;8040;50.254;10.960;2023-04-06T05:43:17;380.57;;;84.30;;
15883;SDS011;8040;50.254;10.960;2023-04-06T05:45:44;378.97;;;83.20;;
15883;SDS011;8040;50.254;10.960;2023-04-06T05:48:10;382.15;;;88.78;;
15883;SDS011;8040;50.254;10.960;2023-04-06T05:50:36;384.20;;;87.53;;
15883;SDS011;8040;50.254;10.960;2023-04-06T05:53:01;387.43;;;89.20;;
15883;SDS011;8040;50.254;10.960;2023-04-06T05:55:27;398.67;;;99.50;;
15883;SDS011;8040;50.254;10.960;2023-04-06T05:57:53;396.83;;;97.90;;
15883;SDS011;8040;50.254;10.960;2023-04-06T06:00:19;399.35;;;96.35;;
15883;SDS011;8040;50.254;10.960;2023-04-06T06:02:44;394.87;;;96.70;;
15883;SDS011;8040;50.254;10.960;2023-04-06T06:05:10;391.13;;;94.90;;
15883;SDS011;8040;50.254;10.960;2023-04-06T06:07:35;395.70;;;95.80;;
15883;SDS011;8040;50.254;10.960;2023-04-06T06:10:01;390.85;;;93.78;;
15883;SDS011;8040;50.254;10.960;2023-04-06T06:12:27;393.02;;;97.18;;
15883;SDS011;8040;50.254;10.960;2023-04-06T06:14:53;389.83;;;91.80;;
15883;SDS011;8040;50.254;10.960;2023-04-06T06:17:20;398.25;;;97.07;;
15883;SDS011;8040;50.254;10.960;2023-04-06T06:19:46;390.33;;;93.83;;
15883;SDS011;8040;50.254;10.960;2023-04-06T06:22:14;392.38;;;98.10;;
15883;SDS011;8040;50.254;10.960;2023-04-06T06:24:39;410.98;;;100.80;;
15883;SDS011;8040;50.254;10.960;2023-04-06T06:27:05;394.53;;;95.77;;
15883;SDS011;8040;50.254;10.960;2023-04-06T06:29:30;380.27;;;84.20;;
15883;SDS011;8040;50.254;10.960;2023-04-06T06:31:56;389.70;;;90.07;;
15883;SDS011;8040;50.254;10.960;2023-04-06T06:34:21;380.77;;;84.83;;
15883;SDS011;8040;50.254;10.960;2023-04-06T06:36:47;388.52;;;91.75;;
15883;SDS011;8040;50.254;10.960;2023-04-06T06:39:12;384.08;;;84.88;;
15883;SDS011;8040;50.254;10.960;2023-04-06T06:41:37;381.30;;;84.67;;
15883;SDS011;8040;50.254;10.960;2023-04-06T06:44:03;383.07;;;86.83;;
15883;SDS011;8040;50.254;10.960;2023-04-06T06:46:28;391.00;;;91.73;;
15883;SDS011;8040;50.254;10.960;2023-04-06T06:48:54;384.70;;;86.63;;
15883;SDS011;8040;50.254;10.960;2023-04-06T06:51:19;379.17;;;81.43;;
15883;SDS011;8040;50.254;10.960;2023-04-06T06:53:45;380.63;;;85.32;;
15883;SDS011;8040;50.254;10.960;2023-04-06T06:56:10;392.47;;;92.27;;
15883;SDS011;8040;50.254;10.960;2023-04-06T06:58:37;386.20;;;86.70;;
15883;SDS011;8040;50.254;10.960;2023-04-06T07:01:03;383.53;;;85.20;;
15883;SDS011;8040;50.254;10.960;2023-04-06T07:03:30;381.53;;;85.60;;
15883;SDS011;8040;50.254;10.960;2023-04-06T07:05:55;393.08;;;90.57;;
15883;SDS011;8040;50.254;10.960;2023-04-06T07:08:22;393.00;;;95.63;;
15883;SDS011;8040;50.254;10.960;2023-04-06T07:10:49;382.55;;;83.65;;
15883;SDS011;8040;50.254;10.960;2023-04-06T07:13:17;382.42;;;81.70;;
15883;SDS011;8040;50.254;10.960;2023-04-06T07:15:47;382.92;;;84.05;;
15883;SDS011;8040;50.254;10.960;2023-04-06T07:18:12;385.20;;;87.03;;
15883;SDS011;8040;50.254;10.960;2023-04-06T07:20:38;389.75;;;92.07;;
15883;SDS011;8040;50.254;10.960;2023-04-06T07:23:03;381.77;;;83.43;;
15883;SDS011;8040;50.254;10.960;2023-04-06T07:25:29;386.90;;;87.37;;
15883;SDS011;8040;50.254;10.960;2023-04-06T07:27:55;380.83;;;84.95;;
15883;SDS011;8040;50.254;10.960;2023-04-06T07:30:20;387.13;;;92.17;;
15883;SDS011;8040;50.254;10.960;2023-04-06T07:32:47;387.48;;;89.18;;
15883;SDS011;8040;50.254;10.960;2023-04-06T07:35:13;396.13;;;94.40;;
15883;SDS011;8040;50.254;10.960;2023-04-06T07:37:39;393.02;;;94.03;;
15883;SDS011;8040;50.254;10.960;2023-04-06T07:40:05;391.33;;;90.77;;
15883;SDS011;8040;50.254;10.960;2023-04-06T07:42:31;402.63;;;104.07;;
15883;SDS011;8040;50.254;10.960;2023-04-06T07:44:58;390.00;;;91.05;;
15883;SDS011;8040;50.254;10.960;2023-04-06T07:47:23;388.50;;;91.72;;
15883;SDS011;8040;50.254;10.960;2023-04-06T07:49:49;390.10;;;94.70;;
15883;SDS011;8040;50.254;10.960;2023-04-06T07:52:15;399.83;;;100.03;;
15883;SDS011;8040;50.254;10.960;2023-04-06T07:54:40;397.63;;;98.65;;
15883;SDS011;8040;50.254;10.960;2023-04-06T07:57:08;388.48;;;92.03;;
15883;SDS011;8040;50.254;10.960;2023-04-06T07:59:49;392.25;;;92.57;;
15883;SDS011;8040;50.254;10.960;2023-04-06T08:02:39;386.80;;;89.15;;
15883;SDS011;8040;50.254;10.960;2023-04-06T08:05:08;393.45;;;94.13;;
15883;SDS011;8040;50.254;10.960;2023-04-06T08:07:40;399.10;;;96.40;;
15883;SDS011;8040;50.254;10.960;2023-04-06T08:10:07;396.47;;;93.17;;
15883;SDS011;8040;50.254;10.960;2023-04-06T08:12:34;389.80;;;91.78;;
15883;SDS011;8040;50.254;10.960;2023-04-06T08:14:59;427.23;;;125.40;;
15883;SDS011;8040;50.254;10.960;2023-04-06T08:17:25;401.50;;;103.43;;
15883;SDS011;8040;50.254;10.960;2023-04-06T08:19:52;390.95;;;94.80;;
15883;SDS011;8040;50.254;10.960;2023-04-06T08:22:18;411.40;;;105.00;;
15883;SDS011;8040;50.254;10.960;2023-04-06T08:24:43;401.07;;;101.63;;
15883;SDS011;8040;50.254;10.960;2023-04-06T08:27:08;399.10;;;97.20;;
15883;SDS011;8040;50.254;10.960;2023-04-06T08:29:35;392.80;;;94.78;;
15883;SDS011;8040;50.254;10.960;2023-04-06T08:32:00;392.52;;;95.13;;
15883;SDS011;8040;50.254;10.960;2023-04-06T08:34:30;394.25;;;97.55;;
15883;SDS011;8040;50.254;10.960;2023-04-06T08:36:55;401.48;;;97.15;;
15883;SDS011;8040;50.254;10.960;2023-04-06T08:39:21;399.10;;;97.57;;
15883;SDS011;8040;50.254;10.960;2023-04-06T08:41:51;394.77;;;97.75;;
15883;SDS011;8040;50.254;10.960;2023-04-06T08:44:17;412.80;;;109.22;;
15883;SDS011;8040;50.254;10.960;2023-04-06T08:46:46;402.80;;;105.50;;
15883;SDS011;8040;50.254;10.960;2023-04-06T08:49:12;408.83;;;108.07;;
15883;SDS011;8040;50.254;10.960;2023-04-06T08:51:39;401.90;;;102.55;;
15883;SDS011;8040;50.254;10.960;2023-04-06T08:54:05;398.90;;;102.95;;
15883;SDS011;8040;50.254;10.960;2023-04-06T08:56:31;391.90;;;94.93;;
15883;SDS011;8040;50.254;10.960;2023-04-06T08:58:56;398.63;;;100.00;;
15883;SDS011;8040;50.254;10.960;2023-04-06T09:01:25;401.20;;;104.30;;
15883;SDS011;8040;50.254;10.960;2023-04-06T09:03:55;393.45;;;100.35;;
15883;SDS011;8040;50.254;10.960;2023-04-06T09:06:23;398.67;;;104.40;;
15883;SDS011;8040;50.254;10.960;2023-04-06T09:08:55;407.25;;;110.30;;
15883;SDS011;8040;50.254;10.960;2023-04-06T09:11:22;391.50;;;94.65;;
15883;SDS011;8040;50.254;10.960;2023-04-06T09:13:49;405.43;;;104.33;;
15883;SDS011;8040;50.254;10.960;2023-04-06T09:16:38;394.15;;;97.68;;
15883;SDS011;8040;50.254;10.960;2023-04-06T09:19:26;389.15;;;97.90;;
15883;SDS011;8040;50.254;10.960;2023-04-06T09:22:10;390.48;;;95.05;;
15883;SDS011;8040;50.254;10.960;2023-04-06T09:24:46;393.67;;;98.43;;
15883;SDS011;8040;50.254;10.960;2023-04-06T09:27:14;401.17;;;102.85;;
15883;SDS011;8040;50.254;10.960;2023-04-06T09:29:43;402.33;;;105.85;;
15883;SDS011;8040;50.254;10.960;2023-04-06T09:32:11;396.05;;;100.32;;
15883;SDS011;8040;50.254;10.960;2023-04-06T09:34:37;397.42;;;102.25;;
15883;SDS011;8040;50.254;10.960;2023-04-06T09:37:16;393.58;;;95.93;;
15883;SDS011;8040;50.254;10.960;2023-04-06T09:39:45;404.48;;;100.47;;
15883;SDS011;8040;50.254;10.960;2023-04-06T09:42:22;418.45;;;98.75;;
15883;SDS011;8040;50.254;10.960;2023-04-06T09:44:50;391.40;;;95.93;;
15883;SDS011;8040;50.254;10.960;2023-04-06T09:47:18;392.67;;;97.97;;
15883;SDS011;8040;50.254;10.960;2023-04-06T09:49:45;395.23;;;98.82;;
15883;SDS011;8040;50.254;10.960;2023-04-06T09:52:12;417.35;;;116.90;;
15883;SDS011;8040;50.254;10.960;2023-04-06T09:54:39;395.00;;;103.82;;
15883;SDS011;8040;50.254;10.960;2023-04-06T09:57:15;425.20;;;106.97;;
15883;SDS011;8040;50.254;10.960;2023-04-06T10:03:41;414.58;;;136.35;;
15883;SDS011;8040;50.254;10.960;2023-04-06T10:05:43;390.25;;;98.05;;
15883;SDS011;8040;50.254;10.960;2023-04-06T10:08:15;393.67;;;98.10;;
15883;SDS011;8040;50.254;10.960;2023-04-06T10:10:42;394.40;;;102.13;;
15883;SDS011;8040;50.254;10.960;2023-04-06T10:13:08;394.38;;;108.53;;
15883;SDS011;8040;50.254;10.960;2023-04-06T10:15:35;398.15;;;111.03;;
15883;SDS011;8040;50.254;10.960;2023-04-06T10:18:03;403.08;;;111.05;;
15883;SDS011;8040;50.254;10.960;2023-04-06T10:23:26;395.65;;;106.95;;
15883;SDS011;8040;50.254;10.960;2023-04-06T10:26:16;405.08;;;107.45;;
15883;SDS011;8040;50.254;10.960;2023-04-06T10:28:45;403.25;;;115.18;;
15883;SDS011;8040;50.254;10.960;2023-04-06T10:31:12;397.88;;;110.95;;
15883;SDS011;8040;50.254;10.960;2023-04-06T10:33:38;399.50;;;113.20;;
15883;SDS011;8040;50.254;10.960;2023-04-06T10:36:21;405.37;;;112.17;;
15883;SDS011;8040;50.254;10.960;2023-04-06T10:38:53;406.75;;;114.47;;
15883;SDS011;8040;50.254;10.960;2023-04-06T10:41:22;418.73;;;118.30;;
15883;SDS011;8040;50.254;10.960;2023-04-06T10:43:54;398.33;;;110.25;;
15883;SDS011;8040;50.254;10.960;2023-04-06T10:46:27;404.80;;;118.50;;
15883;SDS011;8040;50.254;10.960;2023-04-06T10:48:54;426.08;;;124.43;;
15883;SDS011;8040;50.254;10.960;2023-04-06T10:51:24;402.52;;;114.50;;
15883;SDS011;8040;50.254;10.960;2023-04-06T10:53:53;401.20;;;118.85;;
15883;SDS011;8040;50.254;10.960;2023-04-06T10:56:21;404.50;;;122.65;;
15883;SDS011;8040;50.254;10.960;2023-04-06T10:58:54;403.00;;;117.47;;
15883;SDS011;8040;50.254;10.960;2023-04-06T11:01:21;417.40;;;130.02;;
15883;SDS011;8040;50.254;10.960;2023-04-06T11:03:53;402.60;;;117.28;;
15883;SDS011;8040;50.254;10.960;2023-04-06T11:08:50;402.52;;;116.60;;
15883;SDS011;8040;50.254;10.960;2023-04-06T11:11:17;403.13;;;115.72;;
15883;SDS011;8040;50.254;10.960;2023-04-06T11:16:20;403.70;;;116.80;;
15883;SDS011;8040;50.254;10.960;2023-04-06T11:21:18;412.50;;;120.88;;
15883;SDS011;8040;50.254;10.960;2023-04-06T11:23:45;399.02;;;110.72;;
15883;SDS011;8040;50.254;10.960;2023-04-06T11:26:14;400.57;;;113.90;;
15883;SDS011;8040;50.254;10.960;2023-04-06T11:28:40;406.02;;;119.25;;
15883;SDS011;8040;50.254;10.960;2023-04-06T11:31:08;407.40;;;118.88;;
15883;SDS011;8040;50.254;10.960;2023-04-06T11:33:37;402.25;;;115.47;;
15883;SDS011;8040;50.254;10.960;2023-04-06T11:36:04;397.27;;;110.75;;
15883;SDS011;8040;50.254;10.960;2023-04-06T11:38:30;404.70;;;118.40;;
15883;SDS011;8040;50.254;10.960;2023-04-06T11:40:56;401.23;;;113.53;;
15883;SDS011;8040;50.254;10.960;2023-04-06T11:43:31;397.67;;;112.00;;
15883;SDS011;8040;50.254;10.960;2023-04-06T11:46:00;403.75;;;115.18;;
15883;SDS011;8040;50.254;10.960;2023-04-06T11:48:28;413.65;;;120.75;;
15883;SDS011;8040;50.254;10.960;2023-04-06T11:50:57;401.98;;;116.72;;
15883;SDS011;8040;50.254;10.960;2023-04-06T11:53:26;402.40;;;118.22;;
15883;SDS011;8040;50.254;10.960;2023-04-06T11:55:54;408.52;;;125.40;;
15883;SDS011;8040;50.254;10.960;2023-04-06T11:58:20;410.30;;;125.40;;
15883;SDS011;8040;50.254;10.960;2023-04-06T12:00:46;403.42;;;120.60;;
15883;SDS011;8040;50.254;10.960;2023-04-06T12:03:12;411.30;;;124.28;;
15883;SDS011;8040;50.254;10.960;2023-04-06T12:05:37;401.27;;;117.70;;
15883;SDS011;8040;50.254;10.960;2023-04-06T12:08:03;398.40;;;114.38;;
15883;SDS011;8040;50.254;10.960;2023-04-06T12:10:29;410.23;;;124.77;;
15883;SDS011;8040;50.254;10.960;2023-04-06T12:15:30;412.17;;;127.35;;
15883;SDS011;8040;50.254;10.960;2023-04-06T12:17:56;413.97;;;128.33;;
15883;SDS011;8040;50.254;10.960;2023-04-06T12:20:22;402.25;;;119.55;;
15883;SDS011;8040;50.254;10.960;2023-04-06T12:22:47;403.45;;;118.50;;
15883;SDS011;8040;50.254;10.960;2023-04-06T12:25:13;408.88;;;125.72;;
15883;SDS011;8040;50.254;10.960;2023-04-06T12:27:38;412.63;;;126.00;;
15883;SDS011;8040;50.254;10.960;2023-04-06T12:30:04;398.97;;;117.07;;
15883;SDS011;8040;50.254;10.960;2023-04-06T12:32:30;402.45;;;121.10;;
15883;SDS011;8040;50.254;10.960;2023-04-06T12:34:55;390.80;;;111.03;;
15883;SDS011;8040;50.254;10.960;2023-04-06T12:37:21;396.63;;;119.20;;
15883;SDS011;8040;50.254;10.960;2023-04-06T12:39:46;388.87;;;109.20;;
15883;SDS011;8040;50.254;10.960;2023-04-06T12:42:12;391.13;;;113.23;;
15883;SDS011;8040;50.254;10.960;2023-04-06T12:44:38;392.75;;;110.30;;
15883;SDS011;8040;50.254;10.960;2023-04-06T12:47:04;407.13;;;125.37;;
15883;SDS011;8040;50.254;10.960;2023-04-06T12:49:30;395.73;;;114.18;;
15883;SDS011;8040;50.254;10.960;2023-04-06T12:51:56;393.52;;;113.05;;
15883;SDS011;8040;50.254;10.960;2023-04-06T12:54:23;396.20;;;115.68;;
15883;SDS011;8040;50.254;10.960;2023-04-06T12:56:50;400.02;;;120.32;;
15883;SDS011;8040;50.254;10.960;2023-04-06T12:59:15;405.35;;;125.25;;
15883;SDS011;8040;50.254;10.960;2023-04-06T13:01:41;402.53;;;121.47;;
15883;SDS011;8040;50.254;10.960;2023-04-06T13:04:07;397.40;;;116.73;;
15883;SDS011;8040;50.254;10.960;2023-04-06T13:06:32;420.23;;;110.57;;
15883;SDS011;8040;50.254;10.960;2023-04-06T13:08:58;401.40;;;117.60;;
15883;SDS011;8040;50.254;10.960;2023-04-06T13:11:23;414.55;;;131.35;;
15883;SDS011;8040;50.254;10.960;2023-04-06T13:13:51;399.25;;;112.88;;
15883;SDS011;8040;50.254;10.960;2023-04-06T13:16:16;402.20;;;113.47;;
15883;SDS011;8040;50.254;10.960;2023-04-06T13:18:42;399.23;;;120.70;;
15883;SDS011;8040;50.254;10.960;2023-04-06T13:21:07;395.87;;;116.67;;
15883;SDS011;8040;50.254;10.960;2023-04-06T13:23:33;401.77;;;124.47;;
15883;SDS011;8040;50.254;10.960;2023-04-06T13:26:00;401.92;;;122.57;;
15883;SDS011;8040;50.254;10.960;2023-04-06T13:28:33;399.80;;;116.50;;
15883;SDS011;8040;50.254;10.960;2023-04-06T13:31:00;395.80;;;115.93;;
15883;SDS011;8040;50.254;10.960;2023-04-06T13:33:27;394.77;;;115.05;;
15883;SDS011;8040;50.254;10.960;2023-04-06T13:35:53;400.95;;;123.93;;
15883;SDS011;8040;50.254;10.960;2023-04-06T13:38:19;401.38;;;123.35;;
15883;SDS011;8040;50.254;10.960;2023-04-06T13:40:44;394.70;;;114.60;;
15883;SDS011;8040;50.254;10.960;2023-04-06T13:45:36;359.83;;;99.83;;
15883;SDS011;8040;50.254;10.960;2023-04-06T13:48:02;365.90;;;96.57;;
15883;SDS011;8040;50.254;10.960;2023-04-06T13:50:28;360.00;;;93.03;;
15883;SDS011;8040;50.254;10.960;2023-04-06T13:52:53;355.30;;;94.50;;
15883;SDS011;8040;50.254;10.960;2023-04-06T13:55:19;393.50;;;125.90;;
15883;SDS011;8040;50.254;10.960;2023-04-06T13:57:45;347.00;;;87.75;;
15883;SDS011;8040;50.254;10.960;2023-04-06T14:00:10;390.00;;;104.83;;
15883;SDS011;8040;50.254;10.960;2023-04-06T14:02:38;389.42;;;113.70;;
15883;SDS011;8040;50.254;10.960;2023-04-06T14:05:06;392.70;;;114.32;;
15883;SDS011;8040;50.254;10.960;2023-04-06T14:07:32;403.30;;;121.63;;
15883;SDS011;8040;50.254;10.960;2023-04-06T14:09:58;403.20;;;116.78;;
15883;SDS011;8040;50.254;10.960;2023-04-06T14:12:25;390.50;;;112.00;;
15883;SDS011;8040;50.254;10.960;2023-04-06T14:14:51;389.90;;;116.88;;
15883;SDS011;8040;50.254;10.960;2023-04-06T14:17:17;393.77;;;117.57;;
15883;SDS011;8040;50.254;10.960;2023-04-06T14:19:43;410.33;;;131.77;;